Terminal Aerodrome Forecast
Issued by NWS Jackson, MS

Home | Current Version | Previous Version | Text Only | Print | Product List | Glossary On
Versions: 1 2 3 4 5 6 7 8 9 10 11 12 13 14 15 16 17 18 19
000
FTUS44 KJAN 191157
TAFGLH
TAF
KGLH 191157Z 1912/2012 16008KT 3SM RA BR VCTS BKN004 OVC015CB
     FM192100 21008KT 4SM BR SCT008 BKN035=

USA.gov is the U.S. government's official web portal to all federal, state and local government web resources and services.